EKOD/ODE METAR and TAF weather

Enter ICAO airport designator
Station Type Date Time Source
EKOD METAR 2021/02/26 15:50 UTC NOAA

EKOD 261550Z 29016KT 9999 FEW029 08/05 Q1027


Station Type Date Time Source
EKOD Decoded METAR 2021/02/26 15:50 UTC NOAA

Odense / Beldringe, Denmark (EKOD) 55-29N 010-20E 17M
Feb 26, 2021 - 10:50 AM EST / 2021.02.26 1550 UTC
Wind: from the WNW (290 degrees) at 18 MPH (16 KT):0
Visibility: greater than 7 mile(s):0
Sky conditions: mostly clear
Temperature: 46 F (8 C)
Dew Point: 41 F (5 C)
Relative Humidity: 81%
Pressure (altimeter): 30.33 in. Hg (1027 hPa)
ob: EKOD 261550Z 29016KT 9999 FEW029 08/05 Q1027
cycle: 16

Station Type Date Time Source
EKOD TAF 2015/04/20 17:00 UTC NOAA

TAF
AMD EKOD 201701Z 2017/2018 CNL

Example: see airport list